sensor_id;sensor_type;location;lat;lon;timestamp;P1;durP1;ratioP1;P2;durP2;ratioP2
64641;SDS011;59936;51.490;5.436;2023-08-06T00:00:42;8.10;;;3.90;;
64641;SDS011;59936;51.490;5.436;2023-08-06T00:05:22;6.40;;;4.40;;
64641;SDS011;59936;51.490;5.436;2023-08-06T00:07:51;6.20;;;4.10;;
64641;SDS011;59936;51.490;5.436;2023-08-06T00:10:20;4.90;;;4.50;;
64641;SDS011;59936;51.490;5.436;2023-08-06T00:12:48;5.90;;;4.50;;
64641;SDS011;59936;51.490;5.436;2023-08-06T00:15:17;7.20;;;4.90;;
64641;SDS011;59936;51.490;5.436;2023-08-06T00:17:45;5.70;;;4.20;;
64641;SDS011;59936;51.490;5.436;2023-08-06T00:20:14;6.30;;;4.40;;
64641;SDS011;59936;51.490;5.436;2023-08-06T00:22:42;7.00;;;4.20;;
64641;SDS011;59936;51.490;5.436;2023-08-06T00:25:11;4.40;;;3.80;;
64641;SDS011;59936;51.490;5.436;2023-08-06T00:27:40;6.70;;;4.30;;
64641;SDS011;59936;51.490;5.436;2023-08-06T00:30:08;5.70;;;3.80;;
64641;SDS011;59936;51.490;5.436;2023-08-06T00:32:37;5.00;;;4.30;;
64641;SDS011;59936;51.490;5.436;2023-08-06T00:35:06;5.60;;;4.00;;
64641;SDS011;59936;51.490;5.436;2023-08-06T00:37:35;7.70;;;4.00;;
64641;SDS011;59936;51.490;5.436;2023-08-06T00:40:04;6.20;;;3.70;;
64641;SDS011;59936;51.490;5.436;2023-08-06T00:42:34;4.10;;;3.70;;
64641;SDS011;59936;51.490;5.436;2023-08-06T00:45:03;6.10;;;3.80;;
64641;SDS011;59936;51.490;5.436;2023-08-06T00:47:32;3.50;;;3.20;;
64641;SDS011;59936;51.490;5.436;2023-08-06T00:50:00;5.10;;;3.70;;
64641;SDS011;59936;51.490;5.436;2023-08-06T00:52:29;6.40;;;4.40;;
64641;SDS011;59936;51.490;5.436;2023-08-06T00:54:58;5.30;;;3.90;;
64641;SDS011;59936;51.490;5.436;2023-08-06T00:57:27;4.80;;;3.90;;
64641;SDS011;59936;51.490;5.436;2023-08-06T00:59:56;6.70;;;4.20;;
64641;SDS011;59936;51.490;5.436;2023-08-06T01:02:24;4.60;;;3.90;;
64641;SDS011;59936;51.490;5.436;2023-08-06T01:04:53;5.30;;;3.20;;
64641;SDS011;59936;51.490;5.436;2023-08-06T01:07:33;6.60;;;4.00;;
64641;SDS011;59936;51.490;5.436;2023-08-06T01:16:02;6.80;;;3.90;;
64641;SDS011;59936;51.490;5.436;2023-08-06T01:18:31;10.90;;;3.90;;
64641;SDS011;59936;51.490;5.436;2023-08-06T01:21:00;5.30;;;3.70;;
64641;SDS011;59936;51.490;5.436;2023-08-06T01:23:29;4.80;;;4.20;;
64641;SDS011;59936;51.490;5.436;2023-08-06T01:32:10;6.70;;;3.80;;
64641;SDS011;59936;51.490;5.436;2023-08-06T01:34:43;7.30;;;4.70;;
64641;SDS011;59936;51.490;5.436;2023-08-06T01:37:15;8.00;;;4.00;;
64641;SDS011;59936;51.490;5.436;2023-08-06T01:39:44;5.70;;;3.80;;
64641;SDS011;59936;51.490;5.436;2023-08-06T01:42:13;4.10;;;3.70;;
64641;SDS011;59936;51.490;5.436;2023-08-06T01:44:41;6.60;;;4.20;;
64641;SDS011;59936;51.490;5.436;2023-08-06T01:47:10;6.50;;;4.20;;
64641;SDS011;59936;51.490;5.436;2023-08-06T01:49:38;5.90;;;3.80;;
64641;SDS011;59936;51.490;5.436;2023-08-06T01:52:07;5.30;;;3.80;;
64641;SDS011;59936;51.490;5.436;2023-08-06T01:54:36;6.00;;;4.00;;
64641;SDS011;59936;51.490;5.436;2023-08-06T01:57:04;5.20;;;3.80;;
64641;SDS011;59936;51.490;5.436;2023-08-06T01:59:33;6.90;;;4.00;;
64641;SDS011;59936;51.490;5.436;2023-08-06T02:02:02;5.70;;;4.00;;
64641;SDS011;59936;51.490;5.436;2023-08-06T02:04:31;6.20;;;4.20;;
64641;SDS011;59936;51.490;5.436;2023-08-06T02:06:59;9.70;;;4.50;;
64641;SDS011;59936;51.490;5.436;2023-08-06T02:09:28;9.40;;;4.60;;
64641;SDS011;59936;51.490;5.436;2023-08-06T02:11:56;3.70;;;3.40;;
64641;SDS011;59936;51.490;5.436;2023-08-06T02:14:25;8.00;;;4.40;;
64641;SDS011;59936;51.490;5.436;2023-08-06T02:16:53;12.10;;;4.10;;
64641;SDS011;59936;51.490;5.436;2023-08-06T02:19:22;4.30;;;3.90;;
64641;SDS011;59936;51.490;5.436;2023-08-06T02:21:51;13.40;;;4.20;;
64641;SDS011;59936;51.490;5.436;2023-08-06T02:24:19;7.70;;;3.80;;
64641;SDS011;59936;51.490;5.436;2023-08-06T02:26:48;6.90;;;3.90;;
64641;SDS011;59936;51.490;5.436;2023-08-06T02:29:17;12.80;;;3.80;;
64641;SDS011;59936;51.490;5.436;2023-08-06T02:31:46;9.50;;;3.90;;
64641;SDS011;59936;51.490;5.436;2023-08-06T02:34:14;10.40;;;4.30;;
64641;SDS011;59936;51.490;5.436;2023-08-06T02:36:43;12.50;;;4.40;;
64641;SDS011;59936;51.490;5.436;2023-08-06T02:39:12;7.40;;;4.10;;
64641;SDS011;59936;51.490;5.436;2023-08-06T02:41:40;8.90;;;4.10;;
64641;SDS011;59936;51.490;5.436;2023-08-06T02:44:09;7.70;;;4.40;;
64641;SDS011;59936;51.490;5.436;2023-08-06T02:46:37;7.00;;;4.30;;
64641;SDS011;59936;51.490;5.436;2023-08-06T02:49:06;5.60;;;4.00;;
64641;SDS011;59936;51.490;5.436;2023-08-06T02:51:34;8.40;;;3.90;;
64641;SDS011;59936;51.490;5.436;2023-08-06T02:54:03;7.40;;;4.30;;
64641;SDS011;59936;51.490;5.436;2023-08-06T02:56:32;13.90;;;4.30;;
64641;SDS011;59936;51.490;5.436;2023-08-06T02:59:00;10.80;;;4.10;;
64641;SDS011;59936;51.490;5.436;2023-08-06T03:01:29;7.70;;;4.10;;
64641;SDS011;59936;51.490;5.436;2023-08-06T03:03:57;6.50;;;4.20;;
64641;SDS011;59936;51.490;5.436;2023-08-06T03:06:26;5.20;;;3.90;;
64641;SDS011;59936;51.490;5.436;2023-08-06T03:08:54;12.70;;;4.40;;
64641;SDS011;59936;51.490;5.436;2023-08-06T03:11:23;9.20;;;4.20;;
64641;SDS011;59936;51.490;5.436;2023-08-06T03:13:52;10.10;;;3.80;;
64641;SDS011;59936;51.490;5.436;2023-08-06T03:16:20;9.50;;;4.40;;
64641;SDS011;59936;51.490;5.436;2023-08-06T03:18:49;7.40;;;3.70;;
64641;SDS011;59936;51.490;5.436;2023-08-06T03:21:17;7.80;;;4.10;;
64641;SDS011;59936;51.490;5.436;2023-08-06T03:23:49;7.40;;;3.90;;
64641;SDS011;59936;51.490;5.436;2023-08-06T03:26:17;9.20;;;4.10;;
64641;SDS011;59936;51.490;5.436;2023-08-06T03:28:46;10.30;;;4.40;;
64641;SDS011;59936;51.490;5.436;2023-08-06T03:31:15;10.60;;;3.90;;
64641;SDS011;59936;51.490;5.436;2023-08-06T03:33:43;12.30;;;4.10;;
64641;SDS011;59936;51.490;5.436;2023-08-06T03:36:12;9.80;;;4.00;;
64641;SDS011;59936;51.490;5.436;2023-08-06T03:38:40;11.20;;;4.20;;
64641;SDS011;59936;51.490;5.436;2023-08-06T03:41:09;7.40;;;4.50;;
64641;SDS011;59936;51.490;5.436;2023-08-06T03:43:37;9.40;;;4.50;;
64641;SDS011;59936;51.490;5.436;2023-08-06T03:46:06;10.20;;;4.90;;
64641;SDS011;59936;51.490;5.436;2023-08-06T03:48:35;12.70;;;5.00;;
64641;SDS011;59936;51.490;5.436;2023-08-06T03:51:03;7.80;;;5.30;;
64641;SDS011;59936;51.490;5.436;2023-08-06T03:53:32;8.30;;;5.40;;
64641;SDS011;59936;51.490;5.436;2023-08-06T03:56:00;8.60;;;5.80;;
64641;SDS011;59936;51.490;5.436;2023-08-06T03:58:29;9.90;;;6.20;;
64641;SDS011;59936;51.490;5.436;2023-08-06T04:01:01;8.60;;;5.30;;
64641;SDS011;59936;51.490;5.436;2023-08-06T04:03:31;6.70;;;5.50;;
64641;SDS011;59936;51.490;5.436;2023-08-06T04:06:01;14.80;;;6.10;;
64641;SDS011;59936;51.490;5.436;2023-08-06T04:08:31;10.40;;;6.30;;
64641;SDS011;59936;51.490;5.436;2023-08-06T04:10:59;12.10;;;6.50;;
64641;SDS011;59936;51.490;5.436;2023-08-06T04:13:28;12.10;;;6.60;;
64641;SDS011;59936;51.490;5.436;2023-08-06T04:16:03;14.30;;;6.20;;
64641;SDS011;59936;51.490;5.436;2023-08-06T04:21:01;8.50;;;6.40;;
64641;SDS011;59936;51.490;5.436;2023-08-06T04:23:30;16.50;;;6.20;;
64641;SDS011;59936;51.490;5.436;2023-08-06T04:25:59;11.20;;;6.20;;
64641;SDS011;59936;51.490;5.436;2023-08-06T04:28:27;14.10;;;7.00;;
64641;SDS011;59936;51.490;5.436;2023-08-06T04:30:56;12.30;;;7.20;;
64641;SDS011;59936;51.490;5.436;2023-08-06T04:33:24;12.80;;;6.90;;
64641;SDS011;59936;51.490;5.436;2023-08-06T04:35:54;10.00;;;6.50;;
64641;SDS011;59936;51.490;5.436;2023-08-06T04:38:23;10.00;;;7.00;;
64641;SDS011;59936;51.490;5.436;2023-08-06T04:40:52;10.50;;;7.00;;
64641;SDS011;59936;51.490;5.436;2023-08-06T04:43:21;17.90;;;7.10;;
64641;SDS011;59936;51.490;5.436;2023-08-06T04:45:50;13.30;;;7.20;;
64641;SDS011;59936;51.490;5.436;2023-08-06T04:48:21;8.40;;;6.90;;
64641;SDS011;59936;51.490;5.436;2023-08-06T04:50:51;9.60;;;7.30;;
64641;SDS011;59936;51.490;5.436;2023-08-06T04:53:19;15.90;;;8.10;;
64641;SDS011;59936;51.490;5.436;2023-08-06T04:55:48;14.80;;;7.60;;
64641;SDS011;59936;51.490;5.436;2023-08-06T04:58:16;15.80;;;8.20;;
64641;SDS011;59936;51.490;5.436;2023-08-06T05:00:45;16.10;;;7.90;;
64641;SDS011;59936;51.490;5.436;2023-08-06T05:03:14;15.20;;;7.70;;
64641;SDS011;59936;51.490;5.436;2023-08-06T05:05:42;8.50;;;6.90;;
64641;SDS011;59936;51.490;5.436;2023-08-06T05:08:13;11.30;;;7.30;;
64641;SDS011;59936;51.490;5.436;2023-08-06T05:10:44;12.90;;;7.20;;
64641;SDS011;59936;51.490;5.436;2023-08-06T05:13:13;11.40;;;7.40;;
64641;SDS011;59936;51.490;5.436;2023-08-06T05:15:42;12.20;;;6.90;;
64641;SDS011;59936;51.490;5.436;2023-08-06T05:18:10;14.70;;;6.80;;
64641;SDS011;59936;51.490;5.436;2023-08-06T05:20:40;9.20;;;7.50;;
64641;SDS011;59936;51.490;5.436;2023-08-06T05:23:10;8.70;;;7.20;;
64641;SDS011;59936;51.490;5.436;2023-08-06T05:25:39;10.10;;;6.60;;
64641;SDS011;59936;51.490;5.436;2023-08-06T05:28:07;12.40;;;6.80;;
64641;SDS011;59936;51.490;5.436;2023-08-06T05:30:40;10.90;;;7.80;;
64641;SDS011;59936;51.490;5.436;2023-08-06T05:33:09;8.80;;;6.40;;
64641;SDS011;59936;51.490;5.436;2023-08-06T05:35:38;7.80;;;6.60;;
64641;SDS011;59936;51.490;5.436;2023-08-06T05:38:10;10.40;;;7.40;;
64641;SDS011;59936;51.490;5.436;2023-08-06T05:40:38;11.80;;;7.50;;
64641;SDS011;59936;51.490;5.436;2023-08-06T05:43:07;13.80;;;7.70;;
64641;SDS011;59936;51.490;5.436;2023-08-06T05:45:35;7.40;;;6.70;;
64641;SDS011;59936;51.490;5.436;2023-08-06T05:48:04;12.20;;;7.20;;
64641;SDS011;59936;51.490;5.436;2023-08-06T05:50:32;6.90;;;6.10;;
64641;SDS011;59936;51.490;5.436;2023-08-06T05:53:01;7.10;;;6.40;;
64641;SDS011;59936;51.490;5.436;2023-08-06T05:55:30;7.50;;;5.60;;
64641;SDS011;59936;51.490;5.436;2023-08-06T05:57:58;9.70;;;6.00;;
64641;SDS011;59936;51.490;5.436;2023-08-06T06:00:27;6.30;;;5.70;;
64641;SDS011;59936;51.490;5.436;2023-08-06T06:02:55;8.80;;;5.80;;
64641;SDS011;59936;51.490;5.436;2023-08-06T06:05:24;11.20;;;6.00;;
64641;SDS011;59936;51.490;5.436;2023-08-06T06:07:52;9.00;;;6.20;;
64641;SDS011;59936;51.490;5.436;2023-08-06T06:10:21;8.60;;;5.20;;
64641;SDS011;59936;51.490;5.436;2023-08-06T06:12:50;8.40;;;5.70;;
64641;SDS011;59936;51.490;5.436;2023-08-06T06:15:18;9.90;;;5.40;;
64641;SDS011;59936;51.490;5.436;2023-08-06T06:17:47;6.70;;;5.50;;
64641;SDS011;59936;51.490;5.436;2023-08-06T06:20:15;6.90;;;5.30;;
64641;SDS011;59936;51.490;5.436;2023-08-06T06:22:44;8.70;;;5.80;;
64641;SDS011;59936;51.490;5.436;2023-08-06T06:25:12;8.40;;;5.50;;
64641;SDS011;59936;51.490;5.436;2023-08-06T06:27:41;8.70;;;5.60;;
64641;SDS011;59936;51.490;5.436;2023-08-06T06:30:10;6.70;;;5.80;;
64641;SDS011;59936;51.490;5.436;2023-08-06T06:32:39;6.20;;;5.10;;
64641;SDS011;59936;51.490;5.436;2023-08-06T06:35:07;7.00;;;5.60;;
64641;SDS011;59936;51.490;5.436;2023-08-06T06:37:36;7.40;;;5.10;;
64641;SDS011;59936;51.490;5.436;2023-08-06T06:40:05;11.70;;;6.00;;
64641;SDS011;59936;51.490;5.436;2023-08-06T06:42:34;6.90;;;5.40;;
64641;SDS011;59936;51.490;5.436;2023-08-06T06:45:03;8.10;;;5.20;;
64641;SDS011;59936;51.490;5.436;2023-08-06T06:47:32;8.90;;;5.40;;
64641;SDS011;59936;51.490;5.436;2023-08-06T06:50:00;4.80;;;3.60;;
64641;SDS011;59936;51.490;5.436;2023-08-06T06:52:29;2.50;;;1.80;;
64641;SDS011;59936;51.490;5.436;2023-08-06T06:54:58;2.20;;;2.10;;
64641;SDS011;59936;51.490;5.436;2023-08-06T06:57:26;1.35;;;1.35;;
64641;SDS011;59936;51.490;5.436;2023-08-06T06:59:55;1.50;;;1.20;;
64641;SDS011;59936;51.490;5.436;2023-08-06T07:02:24;1.20;;;1.20;;
64641;SDS011;59936;51.490;5.436;2023-08-06T07:04:52;3.70;;;1.30;;
64641;SDS011;59936;51.490;5.436;2023-08-06T07:07:21;1.30;;;1.30;;
64641;SDS011;59936;51.490;5.436;2023-08-06T07:09:49;2.10;;;2.00;;
64641;SDS011;59936;51.490;5.436;2023-08-06T07:12:18;1.40;;;1.40;;
64641;SDS011;59936;51.490;5.436;2023-08-06T07:14:46;1.50;;;1.40;;
64641;SDS011;59936;51.490;5.436;2023-08-06T07:17:15;2.90;;;1.50;;
64641;SDS011;59936;51.490;5.436;2023-08-06T07:19:44;1.80;;;1.70;;
64641;SDS011;59936;51.490;5.436;2023-08-06T07:22:12;1.90;;;1.80;;
64641;SDS011;59936;51.490;5.436;2023-08-06T07:24:41;1.10;;;1.10;;
64641;SDS011;59936;51.490;5.436;2023-08-06T07:27:09;2.40;;;2.30;;
64641;SDS011;59936;51.490;5.436;2023-08-06T07:29:38;2.00;;;1.70;;
64641;SDS011;59936;51.490;5.436;2023-08-06T07:32:07;0.70;;;0.70;;
64641;SDS011;59936;51.490;5.436;2023-08-06T07:34:35;1.60;;;1.50;;
64641;SDS011;59936;51.490;5.436;2023-08-06T07:37:04;2.90;;;2.70;;
64641;SDS011;59936;51.490;5.436;2023-08-06T07:39:33;2.60;;;2.40;;
64641;SDS011;59936;51.490;5.436;2023-08-06T07:42:01;4.50;;;3.90;;
64641;SDS011;59936;51.490;5.436;2023-08-06T07:44:30;4.90;;;3.10;;
64641;SDS011;59936;51.490;5.436;2023-08-06T07:46:59;3.30;;;3.00;;
64641;SDS011;59936;51.490;5.436;2023-08-06T07:49:27;2.70;;;2.50;;
64641;SDS011;59936;51.490;5.436;2023-08-06T07:51:56;3.80;;;3.10;;
64641;SDS011;59936;51.490;5.436;2023-08-06T07:54:25;5.00;;;4.10;;
64641;SDS011;59936;51.490;5.436;2023-08-06T07:56:53;3.30;;;3.00;;
64641;SDS011;59936;51.490;5.436;2023-08-06T07:59:22;4.40;;;3.80;;
64641;SDS011;59936;51.490;5.436;2023-08-06T08:01:50;2.80;;;2.60;;
64641;SDS011;59936;51.490;5.436;2023-08-06T08:04:19;4.60;;;4.00;;
64641;SDS011;59936;51.490;5.436;2023-08-06T08:06:48;4.00;;;3.00;;
64641;SDS011;59936;51.490;5.436;2023-08-06T08:09:16;3.50;;;3.20;;
64641;SDS011;59936;51.490;5.436;2023-08-06T08:11:45;2.20;;;2.00;;
64641;SDS011;59936;51.490;5.436;2023-08-06T08:14:14;4.60;;;3.40;;
64641;SDS011;59936;51.490;5.436;2023-08-06T08:16:42;4.30;;;3.60;;
64641;SDS011;59936;51.490;5.436;2023-08-06T08:19:11;3.10;;;2.70;;
64641;SDS011;59936;51.490;5.436;2023-08-06T08:21:39;6.40;;;3.80;;
64641;SDS011;59936;51.490;5.436;2023-08-06T08:24:08;3.50;;;3.10;;
64641;SDS011;59936;51.490;5.436;2023-08-06T08:26:37;4.80;;;3.60;;
64641;SDS011;59936;51.490;5.436;2023-08-06T08:29:05;3.00;;;2.40;;
64641;SDS011;59936;51.490;5.436;2023-08-06T08:31:34;3.70;;;3.10;;
64641;SDS011;59936;51.490;5.436;2023-08-06T08:34:02;2.80;;;2.20;;
64641;SDS011;59936;51.490;5.436;2023-08-06T08:36:31;3.30;;;2.80;;
64641;SDS011;59936;51.490;5.436;2023-08-06T08:38:59;6.40;;;3.60;;
64641;SDS011;59936;51.490;5.436;2023-08-06T08:41:28;7.30;;;3.20;;
64641;SDS011;59936;51.490;5.436;2023-08-06T08:43:59;2.05;;;1.85;;
64641;SDS011;59936;51.490;5.436;2023-08-06T08:46:29;2.70;;;2.50;;
64641;SDS011;59936;51.490;5.436;2023-08-06T08:48:59;6.30;;;3.50;;
64641;SDS011;59936;51.490;5.436;2023-08-06T08:51:30;4.30;;;3.40;;
64641;SDS011;59936;51.490;5.436;2023-08-06T08:53:59;5.60;;;3.50;;
64641;SDS011;59936;51.490;5.436;2023-08-06T08:56:32;3.50;;;2.20;;
64641;SDS011;59936;51.490;5.436;2023-08-06T08:59:02;1.70;;;1.30;;
64641;SDS011;59936;51.490;5.436;2023-08-06T09:01:30;4.80;;;3.40;;
64641;SDS011;59936;51.490;5.436;2023-08-06T09:04:00;6.10;;;3.00;;
64641;SDS011;59936;51.490;5.436;2023-08-06T09:06:30;4.80;;;3.20;;
64641;SDS011;59936;51.490;5.436;2023-08-06T09:09:09;4.60;;;3.40;;
64641;SDS011;59936;51.490;5.436;2023-08-06T09:11:44;7.20;;;3.50;;
64641;SDS011;59936;51.490;5.436;2023-08-06T09:14:12;8.50;;;3.70;;
64641;SDS011;59936;51.490;5.436;2023-08-06T09:16:41;8.40;;;4.20;;
64641;SDS011;59936;51.490;5.436;2023-08-06T09:19:10;8.70;;;4.30;;
64641;SDS011;59936;51.490;5.436;2023-08-06T09:21:40;5.30;;;3.50;;
64641;SDS011;59936;51.490;5.436;2023-08-06T09:24:11;6.90;;;3.30;;
64641;SDS011;59936;51.490;5.436;2023-08-06T09:26:40;7.00;;;4.40;;
64641;SDS011;59936;51.490;5.436;2023-08-06T09:29:11;5.30;;;4.10;;
64641;SDS011;59936;51.490;5.436;2023-08-06T09:31:43;7.30;;;3.60;;
64641;SDS011;59936;51.490;5.436;2023-08-06T09:36:53;6.50;;;4.10;;
64641;SDS011;59936;51.490;5.436;2023-08-06T09:39:29;17.40;;;4.60;;
64641;SDS011;59936;51.490;5.436;2023-08-06T09:42:00;1.70;;;1.60;;
64641;SDS011;59936;51.490;5.436;2023-08-06T09:44:31;8.30;;;3.80;;
64641;SDS011;59936;51.490;5.436;2023-08-06T09:47:02;9.80;;;3.70;;
64641;SDS011;59936;51.490;5.436;2023-08-06T09:52:00;6.50;;;3.00;;
64641;SDS011;59936;51.490;5.436;2023-08-06T09:54:29;5.80;;;3.70;;
64641;SDS011;59936;51.490;5.436;2023-08-06T09:56:58;4.70;;;3.40;;
64641;SDS011;59936;51.490;5.436;2023-08-06T09:59:27;8.20;;;3.70;;
64641;SDS011;59936;51.490;5.436;2023-08-06T10:01:56;7.90;;;4.30;;
64641;SDS011;59936;51.490;5.436;2023-08-06T10:04:26;6.55;;;4.00;;
64641;SDS011;59936;51.490;5.436;2023-08-06T10:06:57;9.40;;;3.80;;
64641;SDS011;59936;51.490;5.436;2023-08-06T10:09:27;8.80;;;3.80;;
64641;SDS011;59936;51.490;5.436;2023-08-06T10:11:56;5.30;;;3.90;;
64641;SDS011;59936;51.490;5.436;2023-08-06T10:14:32;4.60;;;3.30;;
64641;SDS011;59936;51.490;5.436;2023-08-06T10:17:05;7.95;;;4.10;;
64641;SDS011;59936;51.490;5.436;2023-08-06T10:19:34;6.30;;;4.10;;
64641;SDS011;59936;51.490;5.436;2023-08-06T10:27:31;5.70;;;3.30;;
64641;SDS011;59936;51.490;5.436;2023-08-06T10:33:01;5.00;;;3.10;;
64641;SDS011;59936;51.490;5.436;2023-08-06T10:38:18;6.60;;;3.00;;
64641;SDS011;59936;51.490;5.436;2023-08-06T10:43:34;7.50;;;3.35;;
64641;SDS011;59936;51.490;5.436;2023-08-06T10:46:09;3.95;;;3.20;;
64641;SDS011;59936;51.490;5.436;2023-08-06T10:48:48;8.80;;;3.30;;
64641;SDS011;59936;51.490;5.436;2023-08-06T10:51:17;5.40;;;3.20;;
64641;SDS011;59936;51.490;5.436;2023-08-06T10:53:47;7.10;;;3.60;;
64641;SDS011;59936;51.490;5.436;2023-08-06T10:56:18;4.60;;;3.30;;
64641;SDS011;59936;51.490;5.436;2023-08-06T10:58:55;7.80;;;3.70;;
64641;SDS011;59936;51.490;5.436;2023-08-06T11:01:26;6.30;;;3.80;;
64641;SDS011;59936;51.490;5.436;2023-08-06T11:04:00;6.20;;;3.80;;
64641;SDS011;59936;51.490;5.436;2023-08-06T11:06:30;6.80;;;4.30;;
64641;SDS011;59936;51.490;5.436;2023-08-06T11:09:03;10.70;;;4.90;;
64641;SDS011;59936;51.490;5.436;2023-08-06T11:11:32;4.30;;;2.70;;
64641;SDS011;59936;51.490;5.436;2023-08-06T11:14:00;5.50;;;3.50;;
64641;SDS011;59936;51.490;5.436;2023-08-06T11:16:29;7.80;;;4.10;;
64641;SDS011;59936;51.490;5.436;2023-08-06T11:18:57;5.80;;;3.80;;
64641;SDS011;59936;51.490;5.436;2023-08-06T11:21:26;7.75;;;4.50;;
64641;SDS011;59936;51.490;5.436;2023-08-06T11:23:55;10.70;;;4.50;;
64641;SDS011;59936;51.490;5.436;2023-08-06T11:26:23;14.60;;;4.30;;
64641;SDS011;59936;51.490;5.436;2023-08-06T11:28:52;11.00;;;4.50;;
64641;SDS011;59936;51.490;5.436;2023-08-06T11:31:24;8.10;;;4.10;;
64641;SDS011;59936;51.490;5.436;2023-08-06T11:33:53;7.50;;;4.30;;
64641;SDS011;59936;51.490;5.436;2023-08-06T11:36:29;9.10;;;4.10;;
64641;SDS011;59936;51.490;5.436;2023-08-06T11:38:59;7.60;;;4.80;;
64641;SDS011;59936;51.490;5.436;2023-08-06T11:41:29;4.60;;;4.00;;
64641;SDS011;59936;51.490;5.436;2023-08-06T11:43:58;10.80;;;4.40;;
64641;SDS011;59936;51.490;5.436;2023-08-06T11:46:27;8.50;;;5.20;;
64641;SDS011;59936;51.490;5.436;2023-08-06T11:48:56;9.10;;;5.10;;
64641;SDS011;59936;51.490;5.436;2023-08-06T11:51:27;9.70;;;5.80;;
64641;SDS011;59936;51.490;5.436;2023-08-06T11:53:56;9.70;;;5.60;;
64641;SDS011;59936;51.490;5.436;2023-08-06T11:56:26;9.70;;;5.60;;
64641;SDS011;59936;51.490;5.436;2023-08-06T11:58:56;7.40;;;4.40;;
64641;SDS011;59936;51.490;5.436;2023-08-06T12:01:25;15.60;;;4.80;;
64641;SDS011;59936;51.490;5.436;2023-08-06T12:03:58;6.30;;;4.40;;
64641;SDS011;59936;51.490;5.436;2023-08-06T12:06:41;9.20;;;4.90;;
64641;SDS011;59936;51.490;5.436;2023-08-06T12:09:10;9.10;;;4.80;;
64641;SDS011;59936;51.490;5.436;2023-08-06T12:11:39;9.20;;;4.80;;
64641;SDS011;59936;51.490;5.436;2023-08-06T12:14:07;7.40;;;4.80;;
64641;SDS011;59936;51.490;5.436;2023-08-06T12:16:37;9.10;;;4.90;;
64641;SDS011;59936;51.490;5.436;2023-08-06T12:19:05;7.30;;;4.70;;
64641;SDS011;59936;51.490;5.436;2023-08-06T12:21:34;7.50;;;3.60;;
64641;SDS011;59936;51.490;5.436;2023-08-06T12:24:03;3.70;;;2.70;;
64641;SDS011;59936;51.490;5.436;2023-08-06T12:26:31;6.30;;;3.10;;
64641;SDS011;59936;51.490;5.436;2023-08-06T12:29:00;4.90;;;2.80;;
64641;SDS011;59936;51.490;5.436;2023-08-06T12:31:29;8.50;;;2.20;;
64641;SDS011;59936;51.490;5.436;2023-08-06T12:33:57;6.70;;;2.10;;
64641;SDS011;59936;51.490;5.436;2023-08-06T12:36:26;9.40;;;2.70;;
64641;SDS011;59936;51.490;5.436;2023-08-06T12:38:54;2.60;;;2.10;;
64641;SDS011;59936;51.490;5.436;2023-08-06T12:41:23;7.00;;;2.30;;
64641;SDS011;59936;51.490;5.436;2023-08-06T12:43:51;6.20;;;2.20;;
64641;SDS011;59936;51.490;5.436;2023-08-06T12:46:20;6.70;;;2.20;;
64641;SDS011;59936;51.490;5.436;2023-08-06T12:48:48;5.70;;;2.40;;
64641;SDS011;59936;51.490;5.436;2023-08-06T12:51:17;5.60;;;2.30;;
64641;SDS011;59936;51.490;5.436;2023-08-06T12:53:46;5.40;;;2.40;;
64641;SDS011;59936;51.490;5.436;2023-08-06T12:56:14;1.90;;;1.30;;
64641;SDS011;59936;51.490;5.436;2023-08-06T12:58:43;7.00;;;2.30;;
64641;SDS011;59936;51.490;5.436;2023-08-06T13:01:11;3.90;;;1.80;;
64641;SDS011;59936;51.490;5.436;2023-08-06T13:03:40;2.20;;;1.50;;
64641;SDS011;59936;51.490;5.436;2023-08-06T13:06:08;7.30;;;2.20;;
64641;SDS011;59936;51.490;5.436;2023-08-06T13:08:37;4.50;;;2.30;;
64641;SDS011;59936;51.490;5.436;2023-08-06T13:11:06;3.00;;;1.70;;
64641;SDS011;59936;51.490;5.436;2023-08-06T13:13:34;1.80;;;1.20;;
64641;SDS011;59936;51.490;5.436;2023-08-06T13:16:03;6.90;;;1.90;;
64641;SDS011;59936;51.490;5.436;2023-08-06T13:18:31;3.60;;;1.70;;
64641;SDS011;59936;51.490;5.436;2023-08-06T13:21:00;3.60;;;1.70;;
64641;SDS011;59936;51.490;5.436;2023-08-06T13:23:29;4.10;;;2.00;;
64641;SDS011;59936;51.490;5.436;2023-08-06T13:25:57;4.00;;;1.90;;
64641;SDS011;59936;51.490;5.436;2023-08-06T13:28:26;5.10;;;1.80;;
64641;SDS011;59936;51.490;5.436;2023-08-06T13:30:54;4.10;;;0.80;;
64641;SDS011;59936;51.490;5.436;2023-08-06T13:33:23;9.80;;;1.90;;
64641;SDS011;59936;51.490;5.436;2023-08-06T13:35:52;5.40;;;1.60;;
64641;SDS011;59936;51.490;5.436;2023-08-06T13:38:20;6.20;;;1.80;;
64641;SDS011;59936;51.490;5.436;2023-08-06T13:40:49;6.40;;;1.40;;
64641;SDS011;59936;51.490;5.436;2023-08-06T13:43:17;4.60;;;1.70;;
64641;SDS011;59936;51.490;5.436;2023-08-06T13:45:46;6.20;;;2.30;;
64641;SDS011;59936;51.490;5.436;2023-08-06T13:48:15;6.00;;;2.20;;
64641;SDS011;59936;51.490;5.436;2023-08-06T13:50:46;5.50;;;2.00;;
64641;SDS011;59936;51.490;5.436;2023-08-06T13:53:15;8.70;;;2.10;;
64641;SDS011;59936;51.490;5.436;2023-08-06T13:55:44;4.10;;;2.30;;
64641;SDS011;59936;51.490;5.436;2023-08-06T13:58:12;5.70;;;2.40;;
64641;SDS011;59936;51.490;5.436;2023-08-06T14:00:41;7.20;;;2.40;;
64641;SDS011;59936;51.490;5.436;2023-08-06T14:03:09;10.00;;;2.60;;
64641;SDS011;59936;51.490;5.436;2023-08-06T14:05:38;8.60;;;2.70;;
64641;SDS011;59936;51.490;5.436;2023-08-06T14:08:06;5.40;;;2.70;;
64641;SDS011;59936;51.490;5.436;2023-08-06T14:10:35;3.30;;;2.30;;
64641;SDS011;59936;51.490;5.436;2023-08-06T14:13:04;6.40;;;2.60;;
64641;SDS011;59936;51.490;5.436;2023-08-06T14:15:32;5.75;;;2.30;;
64641;SDS011;59936;51.490;5.436;2023-08-06T14:18:01;5.00;;;2.40;;
64641;SDS011;59936;51.490;5.436;2023-08-06T14:20:30;7.40;;;2.00;;
64641;SDS011;59936;51.490;5.436;2023-08-06T14:22:59;3.10;;;2.00;;
64641;SDS011;59936;51.490;5.436;2023-08-06T14:25:27;2.50;;;2.30;;
64641;SDS011;59936;51.490;5.436;2023-08-06T14:27:56;3.10;;;2.00;;
64641;SDS011;59936;51.490;5.436;2023-08-06T14:30:24;2.60;;;2.20;;
64641;SDS011;59936;51.490;5.436;2023-08-06T14:32:53;6.90;;;2.50;;
64641;SDS011;59936;51.490;5.436;2023-08-06T14:35:22;2.90;;;1.70;;
64641;SDS011;59936;51.490;5.436;2023-08-06T14:37:50;5.10;;;1.90;;
64641;SDS011;59936;51.490;5.436;2023-08-06T14:40:19;5.90;;;2.20;;
64641;SDS011;59936;51.490;5.436;2023-08-06T14:42:47;3.00;;;2.10;;
64641;SDS011;59936;51.490;5.436;2023-08-06T14:45:16;3.40;;;2.40;;
64641;SDS011;59936;51.490;5.436;2023-08-06T14:47:45;4.80;;;1.80;;
64641;SDS011;59936;51.490;5.436;2023-08-06T14:50:13;4.20;;;2.10;;
64641;SDS011;59936;51.490;5.436;2023-08-06T14:52:42;3.90;;;1.90;;
64641;SDS011;59936;51.490;5.436;2023-08-06T14:55:10;3.90;;;1.90;;
64641;SDS011;59936;51.490;5.436;2023-08-06T14:57:39;2.40;;;1.80;;
64641;SDS011;59936;51.490;5.436;2023-08-06T15:00:12;5.00;;;1.80;;
64641;SDS011;59936;51.490;5.436;2023-08-06T15:02:41;1.80;;;1.30;;
64641;SDS011;59936;51.490;5.436;2023-08-06T15:05:09;4.30;;;1.70;;
64641;SDS011;59936;51.490;5.436;2023-08-06T15:07:38;1.60;;;1.50;;
64641;SDS011;59936;51.490;5.436;2023-08-06T15:10:06;3.25;;;1.30;;
64641;SDS011;59936;51.490;5.436;2023-08-06T15:12:35;2.50;;;1.60;;
64641;SDS011;59936;51.490;5.436;2023-08-06T15:15:05;1.60;;;1.50;;
64641;SDS011;59936;51.490;5.436;2023-08-06T15:17:35;3.00;;;1.30;;
64641;SDS011;59936;51.490;5.436;2023-08-06T15:20:04;2.50;;;1.20;;
64641;SDS011;59936;51.490;5.436;2023-08-06T15:22:34;1.80;;;1.50;;
64641;SDS011;59936;51.490;5.436;2023-08-06T15:25:03;2.50;;;1.60;;
64641;SDS011;59936;51.490;5.436;2023-08-06T15:27:32;2.40;;;1.50;;
64641;SDS011;59936;51.490;5.436;2023-08-06T15:30:01;2.60;;;1.50;;
64641;SDS011;59936;51.490;5.436;2023-08-06T15:32:33;4.05;;;1.45;;